aviador You're here:

SCCI Decoded Metar

PUNTA ARENAS in CHILE
Report Time2017-10-20 12:00:00
UTC Time2017-10-20 12:21:12
Flight Rules vfr VFR
Wind220° at 09 kt
W.Decomp.*RWY 19: 8.6 kt HW 2.6 kt RCW
RWY 25: 6.6 kt HW 6.1 kt LCW
RWY 12: 0.5 kt HW 9.0 kt RCW
W.Rank220° ranks 17
Current wind is below 220° avg. (9.5)
Visibility9999 m
Phenomena:N/A
Clouds:Broken 046 Hf
Expected CloudBase > 4,000 ft AGL from Temp-Dew spread
Ceiling4,600 ft
Temp04°C (ISA -11)
Dew Point-6°C (48% RH)
AAT-2.0°C
QNH1011 hPa
Density Alt-1,060 ft
Elevation121 ft
Report Wrong Elevation
Raw Report
SCCI 201200Z 22009KT 9999 BKN046 04/M06 Q1011 NOSIG=

Extra information for SCCI:More info

Metar Taf Metar & Taf Last 4 Metars F.Rules Stats Wind Profile Meteogram Temp Stats Airport Information Weather charts Add Link Nearby VenuesMetar ALERT Operation Metar Decoded Social comments